Time;durP1;ratioP1;P1;durP2;ratioP2;P2;SDS_P1;SDS_P2;PMS_P1;PMS_P2;Temp;Humidity;BMP_temperature;BMP_pressure;BME280_temperature;BME280_humidity;BME280_pressure;Samples;Min_cycle;Max_cycle;Signal;HPM_P1;HPM_P2
2022/01/09 00:01:40;;;;;;;2.73;2.50;;;;;;;;;;5073944;28;20521;-68
2022/01/09 00:04:06;;;;;;;2.30;2.10;;;;;;;;;;5074216;28;20199;-72
2022/01/09 00:06:32;;;;;;;2.43;2.20;;;;;;;;;;5074059;28;20203;-67
2022/01/09 00:08:59;;;;;;;1.90;1.80;;;;;;;;;;5074029;28;20226;-66
2022/01/09 00:11:26;;;;;;;3.07;2.13;;;;;;;;;;5073600;28;20474;-70
2022/01/09 00:13:52;;;;;;;2.17;1.97;;;;;;;;;;5073928;28;20478;-69
2022/01/09 00:16:20;;;;;;;2.73;2.30;;;;;;;;;;5073728;28;20872;-70
2022/01/09 00:18:46;;;;;;;2.77;2.00;;;;;;;;;;5073856;28;20436;-67
2022/01/09 00:21:12;;;;;;;2.00;1.80;;;;;;;;;;5064764;28;20434;-67
2022/01/09 00:23:38;;;;;;;1.90;1.80;;;;;;;;;;5053542;28;20438;-66
2022/01/09 00:26:07;;;;;;;2.43;2.10;;;;;;;;;;5053874;28;20430;-67
2022/01/09 00:28:33;;;;;;;2.53;2.10;;;;;;;;;;5053730;28;20200;-65
2022/01/09 00:30:59;;;;;;;2.23;2.03;;;;;;;;;;5053673;28;20522;-65
2022/01/09 00:33:25;;;;;;;2.37;2.17;;;;;;;;;;5053350;28;20200;-65
2022/01/09 00:35:52;;;;;;;2.13;1.90;;;;;;;;;;5052219;28;20204;-61
2022/01/09 00:38:18;;;;;;;2.70;2.03;;;;;;;;;;5052908;28;20220;-63
2022/01/09 00:40:44;;;;;;;2.07;1.80;;;;;;;;;;5053228;28;20871;-70
2022/01/09 00:43:12;;;;;;;2.20;2.00;;;;;;;;;;5053400;28;20570;-68
2022/01/09 00:45:39;;;;;;;1.90;1.80;;;;;;;;;;5053379;28;20434;-68
2022/01/09 00:48:05;;;;;;;2.80;1.90;;;;;;;;;;5052771;28;20438;-68
2022/01/09 00:50:31;;;;;;;1.90;1.80;;;;;;;;;;5052202;28;20438;-68
2022/01/09 00:52:57;;;;;;;4.37;2.30;;;;;;;;;;5051922;28;20435;-66
2022/01/09 00:55:23;;;;;;;2.93;2.00;;;;;;;;;;5052074;28;20909;-65
2022/01/09 00:57:49;;;;;;;2.10;1.90;;;;;;;;;;5052230;28;20188;-66
2022/01/09 01:00:16;;;;;;;1.90;1.80;;;;;;;;;;5052180;28;20469;-66
2022/01/09 01:02:42;;;;;;;1.73;1.63;;;;;;;;;;5052406;28;20205;-67
2022/01/09 01:05:08;;;;;;;1.83;1.73;;;;;;;;;;5072890;28;20509;-69
2022/01/09 01:07:35;;;;;;;2.27;1.70;;;;;;;;;;5072820;28;20920;-68
2022/01/09 01:10:01;;;;;;;2.10;1.90;;;;;;;;;;5072986;28;20800;-68
2022/01/09 01:12:28;;;;;;;2.07;1.90;;;;;;;;;;5072534;28;20488;-69
2022/01/09 01:14:54;;;;;;;1.83;1.73;;;;;;;;;;5072743;28;20519;-68
2022/01/09 01:17:22;;;;;;;2.28;1.83;;;;;;;;;;5071544;28;20889;-68
2022/01/09 01:19:48;;;;;;;3.10;1.80;;;;;;;;;;5072479;28;20677;-68
2022/01/09 01:22:14;;;;;;;2.20;1.90;;;;;;;;;;5072608;28;20476;-70
2022/01/09 01:24:40;;;;;;;1.93;1.77;;;;;;;;;;5072501;28;20924;-66
2022/01/09 01:27:06;;;;;;;1.90;1.80;;;;;;;;;;5072453;28;20854;-67
2022/01/09 01:29:33;;;;;;;1.90;1.80;;;;;;;;;;5072531;28;20438;-69
2022/01/09 01:31:59;;;;;;;1.87;1.77;;;;;;;;;;5072556;28;20445;-69
2022/01/09 01:34:27;;;;;;;1.67;1.57;;;;;;;;;;5072178;28;20979;-68
2022/01/09 01:36:53;;;;;;;1.77;1.60;;;;;;;;;;5072401;28;20441;-68
2022/01/09 01:39:19;;;;;;;2.80;1.80;;;;;;;;;;5072428;28;20446;-66
2022/01/09 01:41:45;;;;;;;1.90;1.50;;;;;;;;;;5072248;28;20563;-69
2022/01/09 01:44:12;;;;;;;1.60;1.50;;;;;;;;;;5072192;28;20999;-68
2022/01/09 01:46:39;;;;;;;2.07;1.60;;;;;;;;;;5072117;28;20422;-66
2022/01/09 01:49:06;;;;;;;1.73;1.63;;;;;;;;;;5070670;28;20794;-68
2022/01/09 01:51:34;;;;;;;1.63;1.53;;;;;;;;;;5072093;28;20520;-66
2022/01/09 01:54:00;;;;;;;1.97;1.80;;;;;;;;;;5071954;28;20848;-67
2022/01/09 01:56:26;;;;;;;2.07;1.87;;;;;;;;;;5071888;28;20441;-67
2022/01/09 01:58:53;;;;;;;2.40;1.60;;;;;;;;;;5071287;28;20877;-69
2022/01/09 02:01:19;;;;;;;2.10;1.90;;;;;;;;;;5072124;28;20222;-69
2022/01/09 02:03:45;;;;;;;1.70;1.60;;;;;;;;;;5072036;28;20491;-69
2022/01/09 02:06:11;;;;;;;2.03;1.87;;;;;;;;;;5071542;28;20433;-65
2022/01/09 02:08:39;;;;;;;1.90;1.80;;;;;;;;;;5071739;28;20431;-66
2022/01/09 02:11:05;;;;;;;3.20;1.90;;;;;;;;;;5071820;28;20478;-65
2022/01/09 02:13:31;;;;;;;2.27;1.70;;;;;;;;;;5071776;28;20446;-66
2022/01/09 02:15:59;;;;;;;1.73;1.63;;;;;;;;;;5071948;28;20357;-64
2022/01/09 02:18:25;;;;;;;1.70;1.60;;;;;;;;;;5071780;28;20650;-64
2022/01/09 02:20:53;;;;;;;1.90;1.67;;;;;;;;;;5071693;28;20524;-64
2022/01/09 02:23:20;;;;;;;1.80;1.60;;;;;;;;;;5071689;28;20233;-64
2022/01/09 02:25:47;;;;;;;1.97;1.77;;;;;;;;;;5071743;28;20487;-63
2022/01/09 02:28:14;;;;;;;1.70;1.53;;;;;;;;;;5071687;28;20920;-68
2022/01/09 02:30:41;;;;;;;2.60;1.67;;;;;;;;;;5071586;28;20438;-62
2022/01/09 02:33:08;;;;;;;1.70;1.60;;;;;;;;;;5071657;28;20446;-64
2022/01/09 02:35:34;;;;;;;1.80;1.70;;;;;;;;;;5071536;28;20506;-64
2022/01/09 02:38:03;;;;;;;1.70;1.60;;;;;;;;;;5071694;28;20454;-63
2022/01/09 02:40:29;;;;;;;1.70;1.60;;;;;;;;;;5071478;28;20979;-64
2022/01/09 02:42:56;;;;;;;1.80;1.70;;;;;;;;;;5071701;28;20426;-64
2022/01/09 02:45:24;;;;;;;2.27;1.93;;;;;;;;;;5071507;28;20437;-66
2022/01/09 02:47:50;;;;;;;1.70;1.60;;;;;;;;;;5071635;28;20443;-65
2022/01/09 02:50:42;;;;;;;1.70;1.60;;;;;;;;;;5071559;28;20462;-65
2022/01/09 02:53:21;;;;;;;1.60;1.50;;;;;;;;;;5071140;28;20531;-65
2022/01/09 02:55:48;;;;;;;2.47;1.70;;;;;;;;;;5070906;28;20481;-64
2022/01/09 02:58:14;;;;;;;1.70;1.60;;;;;;;;;;5071553;28;20430;-64
2022/01/09 03:00:42;;;;;;;1.90;1.80;;;;;;;;;;5071062;28;20457;-64
2022/01/09 03:03:08;;;;;;;2.40;1.87;;;;;;;;;;5071258;28;20545;-64
2022/01/09 03:05:34;;;;;;;2.07;1.77;;;;;;;;;;5071241;28;20988;-66
2022/01/09 03:08:00;;;;;;;1.97;1.87;;;;;;;;;;5071262;28;20206;-64
2022/01/09 03:10:28;;;;;;;2.20;2.00;;;;;;;;;;5071488;28;20433;-62
2022/01/09 03:12:56;;;;;;;1.60;1.50;;;;;;;;;;5075024;28;20438;-63
2022/01/09 03:15:22;;;;;;;2.17;1.97;;;;;;;;;;5074775;28;20477;-63
2022/01/09 03:17:48;;;;;;;2.37;1.90;;;;;;;;;;5074843;28;20433;-64
2022/01/09 03:20:15;;;;;;;3.00;1.70;;;;;;;;;;5074839;28;20199;-62
2022/01/09 03:22:41;;;;;;;1.63;1.53;;;;;;;;;;5074511;28;20467;-62
2022/01/09 03:25:08;;;;;;;1.80;1.70;;;;;;;;;;5074782;28;20429;-63
2022/01/09 03:27:36;;;;;;;2.00;1.90;;;;;;;;;;5074654;28;20312;-64
2022/01/09 03:30:03;;;;;;;1.90;1.80;;;;;;;;;;5074671;28;20967;-63
2022/01/09 03:32:29;;;;;;;1.90;1.80;;;;;;;;;;5074428;28;20481;-62
2022/01/09 03:34:55;;;;;;;2.77;2.10;;;;;;;;;;5074415;28;20497;-62
2022/01/09 03:37:21;;;;;;;2.20;2.00;;;;;;;;;;5074294;28;20496;-62
2022/01/09 03:39:47;;;;;;;2.17;2.00;;;;;;;;;;5074442;28;20195;-64
2022/01/09 03:42:13;;;;;;;1.93;1.80;;;;;;;;;;5074526;28;20211;-62
2022/01/09 03:44:40;;;;;;;2.00;1.90;;;;;;;;;;5074175;28;20436;-63
2022/01/09 03:47:06;;;;;;;2.33;2.10;;;;;;;;;;5074286;28;20204;-61
2022/01/09 03:49:32;;;;;;;1.70;1.60;;;;;;;;;;5074224;28;20783;-61
2022/01/09 03:52:00;;;;;;;2.00;1.80;;;;;;;;;;5074236;28;20199;-60
2022/01/09 03:54:26;;;;;;;2.33;2.10;;;;;;;;;;5074001;28;20228;-61
2022/01/09 03:56:52;;;;;;;2.17;1.70;;;;;;;;;;5074043;28;20483;-61
2022/01/09 03:59:18;;;;;;;1.90;1.77;;;;;;;;;;5074244;28;20468;-61
2022/01/09 04:01:46;;;;;;;1.90;1.80;;;;;;;;;;5073996;28;20537;-61
2022/01/09 04:04:12;;;;;;;2.47;1.90;;;;;;;;;;5074040;28;20488;-60
2022/01/09 04:06:50;;;;;;;2.27;2.07;;;;;;;;;;5073734;28;21019;-60
2022/01/09 04:09:38;;;;;;;2.60;1.90;;;;;;;;;;5074323;28;20509;-60
2022/01/09 04:12:06;;;;;;;1.93;1.83;;;;;;;;;;5073829;28;20468;-61
2022/01/09 04:14:33;;;;;;;2.33;2.13;;;;;;;;;;5073836;28;20470;-61
2022/01/09 04:17:01;;;;;;;2.27;2.07;;;;;;;;;;5073909;28;20434;-61
2022/01/09 04:19:27;;;;;;;4.00;2.50;;;;;;;;;;5073627;28;20787;-61
2022/01/09 04:21:53;;;;;;;2.60;2.30;;;;;;;;;;5073102;28;20440;-61
2022/01/09 04:24:19;;;;;;;2.30;2.20;;;;;;;;;;5073721;28;20649;-61
2022/01/09 04:26:45;;;;;;;2.50;2.30;;;;;;;;;;5073724;28;20814;-61
2022/01/09 04:29:11;;;;;;;2.63;2.43;;;;;;;;;;5073599;28;20529;-60
2022/01/09 04:31:37;;;;;;;2.30;2.10;;;;;;;;;;5073333;28;20541;-61
2022/01/09 04:34:05;;;;;;;2.30;2.10;;;;;;;;;;5073498;28;20232;-61
2022/01/09 04:36:31;;;;;;;2.83;2.23;;;;;;;;;;5073384;28;20200;-61
2022/01/09 04:38:57;;;;;;;3.17;2.43;;;;;;;;;;5073381;28;20445;-61
2022/01/09 04:41:23;;;;;;;2.37;2.17;;;;;;;;;;5073364;28;20434;-61
2022/01/09 04:43:50;;;;;;;2.37;2.20;;;;;;;;;;5073188;28;20962;-60
2022/01/09 04:46:23;;;;;;;3.70;2.53;;;;;;;;;;5073206;28;20851;-60
2022/01/09 04:48:52;;;;;;;2.50;2.20;;;;;;;;;;5073424;28;20449;-61
2022/01/09 04:51:19;;;;;;;2.17;2.07;;;;;;;;;;5073007;28;20434;-61
2022/01/09 04:53:45;;;;;;;2.50;2.30;;;;;;;;;;5072537;28;20587;-61
2022/01/09 04:56:11;;;;;;;2.23;2.13;;;;;;;;;;5072886;28;20518;-61
2022/01/09 04:58:37;;;;;;;2.60;2.30;;;;;;;;;;5072842;28;20882;-61
2022/01/09 05:01:06;;;;;;;2.40;2.20;;;;;;;;;;5072928;28;20210;-61
2022/01/09 05:03:32;;;;;;;2.40;2.20;;;;;;;;;;5072937;28;20198;-61
2022/01/09 05:05:58;;;;;;;2.93;2.73;;;;;;;;;;5072640;28;20787;-60
2022/01/09 05:08:25;;;;;;;2.63;2.37;;;;;;;;;;5072764;28;20440;-61
2022/01/09 05:10:51;;;;;;;2.80;2.60;;;;;;;;;;5072429;28;20597;-61
2022/01/09 05:13:18;;;;;;;2.73;2.20;;;;;;;;;;5072785;28;20517;-61
2022/01/09 05:15:44;;;;;;;2.40;2.20;;;;;;;;;;5072489;28;20227;-61
2022/01/09 05:18:14;;;;;;;2.20;2.03;;;;;;;;;;5072463;28;20454;-61
2022/01/09 05:20:40;;;;;;;2.20;2.10;;;;;;;;;;5072222;28;20434;-61
2022/01/09 05:23:06;;;;;;;2.20;2.00;;;;;;;;;;5072304;28;20444;-61
2022/01/09 05:25:33;;;;;;;2.17;1.97;;;;;;;;;;5072323;28;20520;-62
2022/01/09 05:27:59;;;;;;;2.17;2.07;;;;;;;;;;5072562;28;20199;-61
2022/01/09 05:30:25;;;;;;;2.23;2.03;;;;;;;;;;5072133;28;20440;-61
2022/01/09 05:32:51;;;;;;;2.00;1.90;;;;;;;;;;5071450;28;20662;-62
2022/01/09 05:35:17;;;;;;;2.13;2.03;;;;;;;;;;5071823;28;20216;-61
2022/01/09 05:37:43;;;;;;;2.17;2.07;;;;;;;;;;5071847;28;20227;-62
2022/01/09 05:40:10;;;;;;;2.00;1.90;;;;;;;;;;5072057;28;20200;-63
2022/01/09 05:42:37;;;;;;;2.10;2.00;;;;;;;;;;5071852;28;20665;-63
2022/01/09 05:45:07;;;;;;;2.07;1.97;;;;;;;;;;5072253;28;20529;-63
2022/01/09 05:47:33;;;;;;;2.27;2.10;;;;;;;;;;5072107;28;20469;-63
2022/01/09 05:49:59;;;;;;;1.90;1.80;;;;;;;;;;5071968;28;20465;-63
2022/01/09 05:52:25;;;;;;;2.00;1.90;;;;;;;;;;5071812;28;20200;-63
2022/01/09 05:54:51;;;;;;;1.83;1.73;;;;;;;;;;5071620;28;20254;-63
2022/01/09 05:57:17;;;;;;;2.00;1.90;;;;;;;;;;5071893;28;20684;-63
2022/01/09 05:59:44;;;;;;;1.90;1.80;;;;;;;;;;5071685;28;20206;-63
2022/01/09 06:02:10;;;;;;;2.10;2.00;;;;;;;;;;5071645;28;20492;-62
2022/01/09 06:04:36;;;;;;;2.50;1.83;;;;;;;;;;5071539;28;20438;-62
2022/01/09 06:07:02;;;;;;;2.30;2.10;;;;;;;;;;5071767;28;20774;-62
2022/01/09 06:09:28;;;;;;;2.20;2.00;;;;;;;;;;5071569;28;20658;-62
2022/01/09 06:11:54;;;;;;;2.27;2.07;;;;;;;;;;5071230;28;20527;-61
2022/01/09 06:14:20;;;;;;;2.40;2.20;;;;;;;;;;5071610;28;20469;-61
2022/01/09 06:16:47;;;;;;;5.03;2.23;;;;;;;;;;5071584;28;20495;-61
2022/01/09 06:19:13;;;;;;;2.57;2.37;;;;;;;;;;5071505;28;20199;-61
2022/01/09 06:21:39;;;;;;;2.60;2.40;;;;;;;;;;5071449;28;20453;-62
2022/01/09 06:24:05;;;;;;;2.60;2.40;;;;;;;;;;5071449;28;20438;-61
2022/01/09 06:26:31;;;;;;;2.20;2.10;;;;;;;;;;5071661;28;20762;-62
2022/01/09 06:28:57;;;;;;;2.30;2.20;;;;;;;;;;5071299;28;20623;-61
2022/01/09 06:31:23;;;;;;;2.50;2.30;;;;;;;;;;5071458;28;20429;-61
2022/01/09 06:33:51;;;;;;;2.70;2.50;;;;;;;;;;5071436;28;20640;-62
2022/01/09 06:36:17;;;;;;;2.73;2.50;;;;;;;;;;5071535;28;20218;-63
2022/01/09 06:38:43;;;;;;;2.47;2.27;;;;;;;;;;5071383;28;20456;-60
2022/01/09 06:41:09;;;;;;;4.27;2.40;;;;;;;;;;5071384;28;20650;-60
2022/01/09 06:43:35;;;;;;;2.57;2.37;;;;;;;;;;5071497;28;20230;-62
2022/01/09 06:46:01;;;;;;;2.77;2.57;;;;;;;;;;5074626;28;20442;-60
2022/01/09 06:48:27;;;;;;;2.70;2.50;;;;;;;;;;5075499;28;20669;-61
2022/01/09 06:50:54;;;;;;;2.60;2.40;;;;;;;;;;5075047;28;20221;-62
2022/01/09 06:53:20;;;;;;;2.23;2.13;;;;;;;;;;5075249;28;20457;-62
2022/01/09 06:55:46;;;;;;;2.03;1.93;;;;;;;;;;5075276;28;20492;-61
2022/01/09 06:58:14;;;;;;;2.47;2.27;;;;;;;;;;5075296;28;20445;-62
2022/01/09 07:00:40;;;;;;;2.70;2.50;;;;;;;;;;5072019;28;20434;-63
2022/01/09 07:03:06;;;;;;;2.70;2.50;;;;;;;;;;5074942;28;20436;-62
2022/01/09 07:05:32;;;;;;;2.80;2.60;;;;;;;;;;5070124;28;20658;-61
2022/01/09 07:07:59;;;;;;;2.80;2.60;;;;;;;;;;5054855;28;20286;-62
2022/01/09 07:10:25;;;;;;;2.93;2.73;;;;;;;;;;5057480;28;20282;-61
2022/01/09 07:12:51;;;;;;;2.60;2.50;;;;;;;;;;5054712;28;20514;-60
2022/01/09 07:15:17;;;;;;;2.70;2.50;;;;;;;;;;5055023;28;20230;-60
2022/01/09 07:17:43;;;;;;;2.87;2.67;;;;;;;;;;5054959;28;20204;-59
2022/01/09 07:20:10;;;;;;;2.80;2.60;;;;;;;;;;5054507;28;20434;-60
2022/01/09 07:22:36;;;;;;;2.73;2.53;;;;;;;;;;5054636;28;20223;-59
2022/01/09 07:25:05;;;;;;;2.73;2.53;;;;;;;;;;5054815;28;20963;-60
2022/01/09 07:27:31;;;;;;;3.00;2.80;;;;;;;;;;5054874;28;20208;-59
2022/01/09 07:29:57;;;;;;;3.10;2.90;;;;;;;;;;5054480;28;20526;-60
2022/01/09 07:32:23;;;;;;;3.10;2.90;;;;;;;;;;5054546;28;20534;-60
2022/01/09 07:34:49;;;;;;;2.90;2.70;;;;;;;;;;5054420;28;20216;-58
2022/01/09 07:37:15;;;;;;;2.77;2.57;;;;;;;;;;5054588;28;20434;-59
2022/01/09 07:39:41;;;;;;;2.87;2.67;;;;;;;;;;5054551;28;20439;-58
2022/01/09 07:42:09;;;;;;;2.93;2.73;;;;;;;;;;5054312;28;20975;-59
2022/01/09 07:44:35;;;;;;;9.63;7.93;;;;;;;;;;5054369;28;20212;-59
2022/01/09 07:47:01;;;;;;;8.07;7.23;;;;;;;;;;5054234;28;20442;-59
2022/01/09 07:49:27;;;;;;;3.83;3.53;;;;;;;;;;5054251;28;20442;-60
2022/01/09 07:51:53;;;;;;;3.70;3.40;;;;;;;;;;5054177;28;20727;-59
2022/01/09 07:54:19;;;;;;;3.30;3.10;;;;;;;;;;5054333;28;20228;-59
2022/01/09 07:56:45;;;;;;;3.57;3.20;;;;;;;;;;5053315;28;20218;-60
2022/01/09 07:59:12;;;;;;;3.80;3.50;;;;;;;;;;5054166;28;20443;-59
2022/01/09 08:01:38;;;;;;;4.03;3.73;;;;;;;;;;5054094;28;20204;-60
2022/01/09 08:04:05;;;;;;;4.13;3.83;;;;;;;;;;5053886;28;20461;-60
2022/01/09 08:06:30;;;;;;;3.93;3.63;;;;;;;;;;5054208;28;20438;-60
2022/01/09 08:08:57;;;;;;;4.40;4.00;;;;;;;;;;5053871;28;21020;-61
2022/01/09 08:11:23;;;;;;;4.77;4.37;;;;;;;;;;5053736;28;20239;-59
2022/01/09 08:13:49;;;;;;;4.73;4.33;;;;;;;;;;5053907;28;20439;-59
2022/01/09 08:16:16;;;;;;;4.97;4.47;;;;;;;;;;5053696;28;20475;-62
2022/01/09 08:18:42;;;;;;;4.80;4.40;;;;;;;;;;5053689;28;20438;-65
2022/01/09 08:21:08;;;;;;;6.03;5.40;;;;;;;;;;5053382;28;20446;-65
2022/01/09 08:23:34;;;;;;;5.27;4.87;;;;;;;;;;5053739;28;20204;-62
2022/01/09 08:26:00;;;;;;;5.50;5.00;;;;;;;;;;5053632;28;20204;-62
2022/01/09 08:28:26;;;;;;;6.43;5.10;;;;;;;;;;5053606;28;20235;-59
2022/01/09 08:30:52;;;;;;;7.30;6.00;;;;;;;;;;5058592;28;20257;-60
2022/01/09 08:33:24;;;;;;;6.60;6.00;;;;;;;;;;5053852;28;20203;-60
2022/01/09 08:35:50;;;;;;;6.23;5.63;;;;;;;;;;5053545;28;20273;-60
2022/01/09 08:38:20;;;;;;;6.53;5.47;;;;;;;;;;5053562;28;20446;-60
2022/01/09 08:40:46;;;;;;;7.00;6.03;;;;;;;;;;5053579;28;20446;-60
2022/01/09 08:43:12;;;;;;;5.47;4.97;;;;;;;;;;5051171;28;20433;-61
2022/01/09 08:45:38;;;;;;;6.47;5.87;;;;;;;;;;5052974;28;20442;-60
2022/01/09 08:48:04;;;;;;;6.53;5.93;;;;;;;;;;5052961;28;20265;-61
2022/01/09 08:50:32;;;;;;;6.10;5.57;;;;;;;;;;5053111;28;20437;-61
2022/01/09 08:52:58;;;;;;;8.37;6.73;;;;;;;;;;5052752;28;20443;-60
2022/01/09 08:55:24;;;;;;;8.03;6.30;;;;;;;;;;5052843;28;20474;-60
2022/01/09 08:57:50;;;;;;;8.37;6.27;;;;;;;;;;5052594;28;20196;-60
2022/01/09 09:00:18;;;;;;;8.03;6.47;;;;;;;;;;5052810;28;20477;-60
2022/01/09 09:02:44;;;;;;;8.37;6.63;;;;;;;;;;5052745;28;20435;-62
2022/01/09 09:05:10;;;;;;;6.30;5.77;;;;;;;;;;5052730;28;20787;-61
2022/01/09 09:07:38;;;;;;;6.97;6.30;;;;;;;;;;5052638;28;20826;-61
2022/01/09 09:10:04;;;;;;;7.33;6.63;;;;;;;;;;5052693;28;20809;-60
2022/01/09 09:12:31;;;;;;;6.97;6.27;;;;;;;;;;5052436;28;21026;-60
2022/01/09 09:14:57;;;;;;;8.57;7.23;;;;;;;;;;5052388;28;20471;-61
2022/01/09 09:17:23;;;;;;;6.87;6.20;;;;;;;;;;5052481;28;20523;-61
2022/01/09 09:19:49;;;;;;;7.57;6.87;;;;;;;;;;5052432;28;20434;-61
2022/01/09 09:22:15;;;;;;;9.77;7.30;;;;;;;;;;5052320;28;20508;-60
2022/01/09 09:24:42;;;;;;;11.00;7.20;;;;;;;;;;5052260;28;20655;-60
2022/01/09 09:27:08;;;;;;;8.57;7.67;;;;;;;;;;5052151;28;20454;-60
2022/01/09 09:29:34;;;;;;;8.63;7.73;;;;;;;;;;5052327;28;20447;-60
2022/01/09 09:32:00;;;;;;;10.53;7.90;;;;;;;;;;5052163;28;20446;-60
2022/01/09 09:34:26;;;;;;;10.07;7.57;;;;;;;;;;5052001;28;20224;-60
2022/01/09 09:36:52;;;;;;;9.53;8.13;;;;;;;;;;5052013;28;20434;-60
2022/01/09 09:39:18;;;;;;;11.70;8.50;;;;;;;;;;5052063;28;21006;-60
2022/01/09 09:41:46;;;;;;;11.17;9.60;;;;;;;;;;5052166;28;20234;-61
2022/01/09 09:44:12;;;;;;;11.90;10.13;;;;;;;;;;5051793;28;20461;-61
2022/01/09 09:46:39;;;;;;;12.97;10.23;;;;;;;;;;5051968;28;20984;-61
2022/01/09 09:49:05;;;;;;;16.40;12.47;;;;;;;;;;5051672;28;20498;-61
2022/01/09 09:51:31;;;;;;;16.63;12.17;;;;;;;;;;5052086;28;20521;-61
2022/01/09 09:53:58;;;;;;;22.37;12.23;;;;;;;;;;5051714;28;20542;-60
2022/01/09 09:56:24;;;;;;;20.70;13.10;;;;;;;;;;5051581;28;20231;-59
2022/01/09 09:58:52;;;;;;;17.63;13.03;;;;;;;;;;5051733;28;20521;-59
2022/01/09 10:01:24;;;;;;;15.53;12.93;;;;;;;;;;5051758;28;20442;-59
2022/01/09 10:03:54;;;;;;;17.50;10.53;;;;;;;;;;5051626;28;20470;-61
2022/01/09 10:06:33;;;;;;;22.17;11.37;;;;;;;;;;5051973;28;20431;-62
2022/01/09 10:09:05;;;;;;;26.07;11.13;;;;;;;;;;5051568;28;20446;-60
2022/01/09 10:11:40;;;;;;;21.40;9.00;;;;;;;;;;5051330;28;20577;-62
2022/01/09 10:14:12;;;;;;;25.17;9.27;;;;;;;;;;5051079;28;20517;-61
2022/01/09 10:16:38;;;;;;;23.00;7.77;;;;;;;;;;5051754;28;20488;-61
2022/01/09 10:19:04;;;;;;;23.23;7.10;;;;;;;;;;5051225;28;20435;-61
2022/01/09 10:21:30;;;;;;;20.53;5.43;;;;;;;;;;5051740;28;20462;-61
2022/01/09 10:23:57;;;;;;;17.40;5.37;;;;;;;;;;5051571;28;20967;-62
2022/01/09 10:26:23;;;;;;;25.57;5.27;;;;;;;;;;5051720;28;20435;-61
2022/01/09 10:28:49;;;;;;;27.70;5.63;;;;;;;;;;5051708;28;20844;-60
2022/01/09 10:31:17;;;;;;;17.97;4.40;;;;;;;;;;5051530;28;20226;-60
2022/01/09 10:33:56;;;;;;;29.60;9.47;;;;;;;;;;5051634;28;20636;-59
2022/01/09 10:36:32;;;;;;;17.50;4.13;;;;;;;;;;5051532;28;20489;-60
2022/01/09 10:39:02;;;;;;;19.23;10.50;;;;;;;;;;5049940;28;20426;-60
2022/01/09 10:41:43;;;;;;;17.13;8.53;;;;;;;;;;5051521;28;20455;-60
2022/01/09 10:44:13;;;;;;;15.30;8.40;;;;;;;;;;5051529;28;20485;-60
2022/01/09 10:46:41;;;;;;;18.97;5.13;;;;;;;;;;5051661;28;20489;-61
2022/01/09 10:49:07;;;;;;;21.93;5.07;;;;;;;;;;5051412;28;20443;-61
2022/01/09 10:51:33;;;;;;;15.73;3.73;;;;;;;;;;5051612;28;20430;-60
2022/01/09 10:54:00;;;;;;;11.20;3.93;;;;;;;;;;5051303;28;20469;-61
2022/01/09 10:56:26;;;;;;;14.80;3.27;;;;;;;;;;5051345;28;20793;-61
2022/01/09 10:58:53;;;;;;;18.37;4.33;;;;;;;;;;5051117;28;20940;-61
2022/01/09 11:01:22;;;;;;;15.37;3.30;;;;;;;;;;5051268;28;20522;-61
2022/01/09 11:03:51;;;;;;;18.57;4.47;;;;;;;;;;5051329;28;20446;-62
2022/01/09 11:06:17;;;;;;;13.70;4.37;;;;;;;;;;5051278;28;20435;-62
2022/01/09 11:08:43;;;;;;;8.67;3.20;;;;;;;;;;5051404;28;20477;-62
2022/01/09 11:11:19;;;;;;;11.97;4.13;;;;;;;;;;5051053;28;20498;-62
2022/01/09 11:13:45;;;;;;;9.93;3.10;;;;;;;;;;5051422;28;20449;-62
2022/01/09 11:18:59;;;;;;;10.20;4.00;;;;;;;;;;5051279;28;20923;-62
2022/01/09 11:21:25;;;;;;;13.30;4.13;;;;;;;;;;5051075;28;20454;-61
2022/01/09 11:23:57;;;;;;;15.17;4.67;;;;;;;;;;5051125;28;20443;-60
2022/01/09 11:26:27;;;;;;;26.13;13.17;;;;;;;;;;5051060;28;20439;-60
2022/01/09 11:28:54;;;;;;;12.40;3.97;;;;;;;;;;5050943;28;20453;-60
2022/01/09 11:31:26;;;;;;;12.53;5.37;;;;;;;;;;5051385;28;20435;-62
2022/01/09 11:33:57;;;;;;;13.67;6.27;;;;;;;;;;5054673;28;20504;-60
2022/01/09 11:36:29;;;;;;;12.87;5.90;;;;;;;;;;5055211;28;20569;-62
2022/01/09 11:38:59;;;;;;;10.67;4.57;;;;;;;;;;5054681;28;20437;-60
2022/01/09 11:41:26;;;;;;;12.40;3.37;;;;;;;;;;5054707;28;20445;-59
2022/01/09 11:43:55;;;;;;;14.30;2.90;;;;;;;;;;5054689;28;20509;-61
2022/01/09 11:46:22;;;;;;;7.40;2.97;;;;;;;;;;5054618;28;20442;-63
2022/01/09 11:49:06;;;;;;;12.07;3.10;;;;;;;;;;5054651;28;20441;-62
2022/01/09 11:51:34;;;;;;;10.43;2.47;;;;;;;;;;5054488;28;20430;-62
2022/01/09 11:54:11;;;;;;;11.60;2.90;;;;;;;;;;5054233;28;20466;-64
2022/01/09 11:56:47;;;;;;;11.53;3.63;;;;;;;;;;5054446;28;20477;-63
2022/01/09 11:59:19;;;;;;;15.63;3.40;;;;;;;;;;5055835;28;20508;-65
2022/01/09 12:01:46;;;;;;;10.47;2.93;;;;;;;;;;5055790;28;20500;-63
2022/01/09 12:04:27;;;;;;;12.97;3.30;;;;;;;;;;5054172;28;20431;-63
2022/01/09 12:06:56;;;;;;;8.37;2.67;;;;;;;;;;5054102;28;20422;-64
2022/01/09 12:09:31;;;;;;;10.57;3.00;;;;;;;;;;5054028;28;20447;-61
2022/01/09 12:12:07;;;;;;;9.07;2.90;;;;;;;;;;5054299;28;20477;-61
2022/01/09 12:15:01;;;;;;;14.70;3.10;;;;;;;;;;5053978;28;20931;-61
2022/01/09 12:17:39;;;;;;;11.37;3.07;;;;;;;;;;5053937;28;20514;-62
2022/01/09 12:20:09;;;;;;;33.47;25.33;;;;;;;;;;5052265;28;20434;-61
2022/01/09 12:22:49;;;;;;;17.10;7.90;;;;;;;;;;5053904;28;20442;-60
2022/01/09 12:25:30;;;;;;;12.73;3.03;;;;;;;;;;5053622;28;20556;-61
2022/01/09 12:28:02;;;;;;;12.50;2.63;;;;;;;;;;5053594;28;20849;-61
2022/01/09 12:30:44;;;;;;;8.73;3.17;;;;;;;;;;5053674;28;20442;-61
2022/01/09 12:33:12;;;;;;;8.70;3.40;;;;;;;;;;5053785;28;20539;-62
2022/01/09 12:35:39;;;;;;;10.37;3.20;;;;;;;;;;5053524;28;21004;-63
2022/01/09 12:38:06;;;;;;;9.50;3.80;;;;;;;;;;5052674;28;20820;-63
2022/01/09 12:40:33;;;;;;;15.27;5.23;;;;;;;;;;5053636;28;20478;-63
2022/01/09 12:43:00;;;;;;;13.97;3.23;;;;;;;;;;5053088;28;20458;-64
2022/01/09 12:45:27;;;;;;;9.40;4.20;;;;;;;;;;5053300;28;20434;-63
2022/01/09 12:47:53;;;;;;;5.90;2.50;;;;;;;;;;5053276;28;20500;-64
2022/01/09 12:50:24;;;;;;;10.33;3.30;;;;;;;;;;5053408;28;20447;-64
2022/01/09 12:53:09;;;;;;;5.97;2.50;;;;;;;;;;5053083;28;20854;-64
2022/01/09 12:55:36;;;;;;;6.27;2.67;;;;;;;;;;5052979;28;20532;-64
2022/01/09 12:58:02;;;;;;;9.70;3.80;;;;;;;;;;5053105;28;20442;-64
2022/01/09 13:00:29;;;;;;;12.27;3.90;;;;;;;;;;5052908;28;20530;-64
2022/01/09 13:02:56;;;;;;;10.13;2.67;;;;;;;;;;5053311;28;20438;-65
2022/01/09 13:05:22;;;;;;;9.60;3.07;;;;;;;;;;5053303;28;20465;-65
2022/01/09 13:07:55;;;;;;;10.03;3.33;;;;;;;;;;5053146;28;20474;-66
2022/01/09 13:10:27;;;;;;;8.03;2.60;;;;;;;;;;5052869;28;20442;-63
2022/01/09 13:13:00;;;;;;;7.20;2.70;;;;;;;;;;5052991;28;20469;-63
2022/01/09 13:15:30;;;;;;;9.57;3.70;;;;;;;;;;5052969;28;20471;-62
2022/01/09 13:17:56;;;;;;;7.93;3.23;;;;;;;;;;5052865;28;20438;-62
2022/01/09 13:20:23;;;;;;;7.67;2.87;;;;;;;;;;5052757;28;20921;-62
2022/01/09 13:23:01;;;;;;;10.30;2.60;;;;;;;;;;5052740;28;20204;-63
2022/01/09 13:25:27;;;;;;;9.97;3.30;;;;;;;;;;5052652;28;20442;-61
2022/01/09 13:27:53;;;;;;;11.80;3.50;;;;;;;;;;5052304;28;20510;-62
2022/01/09 13:30:22;;;;;;;11.67;3.40;;;;;;;;;;5052418;28;20917;-63
2022/01/09 13:32:48;;;;;;;11.67;3.10;;;;;;;;;;5052475;28;20446;-63
2022/01/09 13:35:14;;;;;;;8.77;3.30;;;;;;;;;;5052235;28;20470;-63
2022/01/09 13:37:40;;;;;;;12.53;3.13;;;;;;;;;;5052493;28;20438;-63
2022/01/09 13:40:07;;;;;;;8.03;3.03;;;;;;;;;;5052285;28;20467;-63
2022/01/09 13:42:34;;;;;;;10.07;3.10;;;;;;;;;;5052417;28;20451;-64
2022/01/09 13:45:02;;;;;;;13.60;3.13;;;;;;;;;;5052318;28;20431;-63
2022/01/09 13:47:29;;;;;;;10.37;2.60;;;;;;;;;;5052153;28;20960;-64
2022/01/09 13:49:59;;;;;;;14.80;3.07;;;;;;;;;;5052193;28;20542;-64
2022/01/09 13:52:26;;;;;;;10.50;3.53;;;;;;;;;;5051989;28;20465;-66
2022/01/09 13:54:57;;;;;;;12.37;4.27;;;;;;;;;;5050901;28;20470;-65
2022/01/09 13:57:26;;;;;;;8.10;2.90;;;;;;;;;;5051626;28;20423;-65
2022/01/09 13:59:52;;;;;;;14.07;3.77;;;;;;;;;;5051868;28;20438;-64
2022/01/09 14:02:19;;;;;;;11.20;3.40;;;;;;;;;;5052042;28;20801;-64
2022/01/09 14:04:47;;;;;;;10.60;3.57;;;;;;;;;;5051889;28;20441;-65
2022/01/09 14:07:14;;;;;;;10.20;3.47;;;;;;;;;;5051436;28;20442;-63
2022/01/09 14:09:43;;;;;;;10.03;3.57;;;;;;;;;;5051499;28;20445;-64
2022/01/09 14:12:10;;;;;;;12.00;3.93;;;;;;;;;;5051585;28;20474;-64
2022/01/09 14:14:37;;;;;;;11.90;2.87;;;;;;;;;;5051711;28;20955;-65
2022/01/09 14:17:23;;;;;;;12.47;3.97;;;;;;;;;;5051790;28;20945;-65
2022/01/09 14:19:50;;;;;;;8.37;3.13;;;;;;;;;;5052027;28;20438;-66
2022/01/09 14:22:16;;;;;;;6.23;2.83;;;;;;;;;;5051840;28;20449;-65
2022/01/09 14:25:03;;;;;;;14.40;3.87;;;;;;;;;;5051573;28;20482;-65
2022/01/09 14:27:30;;;;;;;11.23;3.30;;;;;;;;;;5051514;28;20508;-66
2022/01/09 14:29:56;;;;;;;10.47;3.70;;;;;;;;;;5051653;28;20928;-65
2022/01/09 14:32:22;;;;;;;8.80;3.63;;;;;;;;;;5051354;28;20530;-66
2022/01/09 14:34:50;;;;;;;9.37;3.23;;;;;;;;;;5051831;28;20481;-65
2022/01/09 14:37:17;;;;;;;11.47;3.77;;;;;;;;;;5051220;28;20441;-64
2022/01/09 14:39:42;;;;;;;14.13;5.17;;;;;;;;;;5051590;28;20906;-65
2022/01/09 14:42:08;;;;;;;8.63;4.00;;;;;;;;;;5051640;28;20437;-64
2022/01/09 14:44:35;;;;;;;8.07;3.57;;;;;;;;;;5051346;28;20349;-63